sensor_id;sensor_type;location;lat;lon;timestamp;temperature;humidity
15636;DHT22;7917;50.818;6.972;2022-11-03T00:01:12;9.00;99.90
15636;DHT22;7917;50.818;6.972;2022-11-03T00:03:40;9.00;99.90
15636;DHT22;7917;50.818;6.972;2022-11-03T00:06:08;9.00;99.90
15636;DHT22;7917;50.818;6.972;2022-11-03T00:08:39;9.00;99.90
15636;DHT22;7917;50.818;6.972;2022-11-03T00:11:08;8.90;99.90
15636;DHT22;7917;50.818;6.972;2022-11-03T00:13:38;9.00;99.90
15636;DHT22;7917;50.818;6.972;2022-11-03T00:16:06;9.00;99.90
15636;DHT22;7917;50.818;6.972;2022-11-03T00:18:33;9.10;99.90
15636;DHT22;7917;50.818;6.972;2022-11-03T00:21:03;9.10;99.90
15636;DHT22;7917;50.818;6.972;2022-11-03T00:23:34;9.10;99.90
15636;DHT22;7917;50.818;6.972;2022-11-03T00:26:03;9.20;99.90
15636;DHT22;7917;50.818;6.972;2022-11-03T00:28:32;9.20;99.90
15636;DHT22;7917;50.818;6.972;2022-11-03T00:31:06;9.20;99.90
15636;DHT22;7917;50.818;6.972;2022-11-03T00:33:36;9.20;99.90
15636;DHT22;7917;50.818;6.972;2022-11-03T00:36:05;9.30;99.90
15636;DHT22;7917;50.818;6.972;2022-11-03T00:38:34;9.30;99.90
15636;DHT22;7917;50.818;6.972;2022-11-03T00:41:05;9.30;99.90
15636;DHT22;7917;50.818;6.972;2022-11-03T00:43:34;9.20;99.90
15636;DHT22;7917;50.818;6.972;2022-11-03T00:46:02;9.20;99.90
15636;DHT22;7917;50.818;6.972;2022-11-03T00:48:29;9.20;99.90
15636;DHT22;7917;50.818;6.972;2022-11-03T00:51:02;9.20;99.90
15636;DHT22;7917;50.818;6.972;2022-11-03T00:53:30;9.20;99.90
15636;DHT22;7917;50.818;6.972;2022-11-03T00:56:00;9.10;99.90
15636;DHT22;7917;50.818;6.972;2022-11-03T00:58:29;9.10;99.90
15636;DHT22;7917;50.818;6.972;2022-11-03T01:01:00;9.20;99.90
15636;DHT22;7917;50.818;6.972;2022-11-03T01:03:28;9.20;99.90
15636;DHT22;7917;50.818;6.972;2022-11-03T01:05:56;9.20;99.90
15636;DHT22;7917;50.818;6.972;2022-11-03T01:08:41;9.20;99.90
15636;DHT22;7917;50.818;6.972;2022-11-03T01:11:11;9.20;99.90
15636;DHT22;7917;50.818;6.972;2022-11-03T01:13:57;9.20;99.90
15636;DHT22;7917;50.818;6.972;2022-11-03T01:16:25;9.10;99.90
15636;DHT22;7917;50.818;6.972;2022-11-03T01:18:53;9.10;99.90
15636;DHT22;7917;50.818;6.972;2022-11-03T01:21:21;9.10;99.90
15636;DHT22;7917;50.818;6.972;2022-11-03T01:23:48;9.10;99.90
15636;DHT22;7917;50.818;6.972;2022-11-03T01:26:17;9.10;99.90
15636;DHT22;7917;50.818;6.972;2022-11-03T01:28:46;9.10;99.90
15636;DHT22;7917;50.818;6.972;2022-11-03T01:31:15;9.10;99.90
15636;DHT22;7917;50.818;6.972;2022-11-03T01:33:42;9.10;99.90
15636;DHT22;7917;50.818;6.972;2022-11-03T01:36:13;9.00;99.90
15636;DHT22;7917;50.818;6.972;2022-11-03T01:38:40;9.00;99.90
15636;DHT22;7917;50.818;6.972;2022-11-03T01:41:12;9.10;99.90
15636;DHT22;7917;50.818;6.972;2022-11-03T01:43:42;9.10;99.90
15636;DHT22;7917;50.818;6.972;2022-11-03T01:46:15;9.00;99.90
15636;DHT22;7917;50.818;6.972;2022-11-03T01:48:47;9.00;99.90
15636;DHT22;7917;50.818;6.972;2022-11-03T01:51:17;9.00;99.90
15636;DHT22;7917;50.818;6.972;2022-11-03T01:53:47;8.90;99.90
15636;DHT22;7917;50.818;6.972;2022-11-03T01:56:15;8.90;99.90
15636;DHT22;7917;50.818;6.972;2022-11-03T01:58:47;8.90;99.90
15636;DHT22;7917;50.818;6.972;2022-11-03T02:01:16;8.80;99.90
15636;DHT22;7917;50.818;6.972;2022-11-03T02:03:46;8.80;99.90
15636;DHT22;7917;50.818;6.972;2022-11-03T02:06:15;8.90;99.90
15636;DHT22;7917;50.818;6.972;2022-11-03T02:08:47;8.80;99.90
15636;DHT22;7917;50.818;6.972;2022-11-03T02:11:15;8.80;99.90
15636;DHT22;7917;50.818;6.972;2022-11-03T02:14:01;8.80;99.90
15636;DHT22;7917;50.818;6.972;2022-11-03T02:16:30;8.80;99.90
15636;DHT22;7917;50.818;6.972;2022-11-03T02:18:59;8.80;99.90
15636;DHT22;7917;50.818;6.972;2022-11-03T02:21:30;8.90;99.90
15636;DHT22;7917;50.818;6.972;2022-11-03T02:24:05;8.90;99.90
15636;DHT22;7917;50.818;6.972;2022-11-03T02:26:37;9.00;99.90
15636;DHT22;7917;50.818;6.972;2022-11-03T02:29:07;9.00;99.90
15636;DHT22;7917;50.818;6.972;2022-11-03T02:31:40;8.90;99.90
15636;DHT22;7917;50.818;6.972;2022-11-03T02:34:13;9.00;99.90
15636;DHT22;7917;50.818;6.972;2022-11-03T02:36:46;9.00;99.90
15636;DHT22;7917;50.818;6.972;2022-11-03T02:39:19;9.00;99.90
15636;DHT22;7917;50.818;6.972;2022-11-03T02:41:49;8.90;99.90
15636;DHT22;7917;50.818;6.972;2022-11-03T02:44:19;8.90;99.90
15636;DHT22;7917;50.818;6.972;2022-11-03T02:46:49;8.90;99.90
15636;DHT22;7917;50.818;6.972;2022-11-03T02:49:18;9.00;99.90
15636;DHT22;7917;50.818;6.972;2022-11-03T02:51:46;8.90;99.90
15636;DHT22;7917;50.818;6.972;2022-11-03T02:54:16;8.80;99.90
15636;DHT22;7917;50.818;6.972;2022-11-03T02:56:50;8.80;99.90
15636;DHT22;7917;50.818;6.972;2022-11-03T02:59:22;8.80;99.90
15636;DHT22;7917;50.818;6.972;2022-11-03T03:01:53;8.80;99.90
15636;DHT22;7917;50.818;6.972;2022-11-03T03:04:26;8.80;99.90
15636;DHT22;7917;50.818;6.972;2022-11-03T03:06:58;8.90;99.90
15636;DHT22;7917;50.818;6.972;2022-11-03T03:09:30;8.80;99.90
15636;DHT22;7917;50.818;6.972;2022-11-03T03:11:59;8.80;99.90
15636;DHT22;7917;50.818;6.972;2022-11-03T03:14:31;8.80;99.90
15636;DHT22;7917;50.818;6.972;2022-11-03T03:17:04;8.90;99.90
15636;DHT22;7917;50.818;6.972;2022-11-03T03:19:43;9.00;99.90
15636;DHT22;7917;50.818;6.972;2022-11-03T03:22:18;9.00;99.90
15636;DHT22;7917;50.818;6.972;2022-11-03T03:24:52;9.00;99.90
15636;DHT22;7917;50.818;6.972;2022-11-03T03:27:24;9.00;99.90
15636;DHT22;7917;50.818;6.972;2022-11-03T03:29:56;9.00;99.90
15636;DHT22;7917;50.818;6.972;2022-11-03T03:32:26;9.00;99.90
15636;DHT22;7917;50.818;6.972;2022-11-03T03:34:56;9.00;99.90
15636;DHT22;7917;50.818;6.972;2022-11-03T03:37:26;9.00;99.90
15636;DHT22;7917;50.818;6.972;2022-11-03T03:39:58;9.10;99.90
15636;DHT22;7917;50.818;6.972;2022-11-03T03:42:29;9.00;99.90
15636;DHT22;7917;50.818;6.972;2022-11-03T03:44:58;9.00;99.90
15636;DHT22;7917;50.818;6.972;2022-11-03T03:47:28;9.00;99.90
15636;DHT22;7917;50.818;6.972;2022-11-03T03:49:56;8.90;99.90
15636;DHT22;7917;50.818;6.972;2022-11-03T03:52:24;9.00;99.90
15636;DHT22;7917;50.818;6.972;2022-11-03T03:54:51;8.90;99.90
15636;DHT22;7917;50.818;6.972;2022-11-03T03:57:21;9.00;99.90
15636;DHT22;7917;50.818;6.972;2022-11-03T03:59:50;9.00;99.90
15636;DHT22;7917;50.818;6.972;2022-11-03T04:02:17;9.00;99.90
15636;DHT22;7917;50.818;6.972;2022-11-03T04:04:45;9.00;99.90
15636;DHT22;7917;50.818;6.972;2022-11-03T04:07:13;9.00;99.90
15636;DHT22;7917;50.818;6.972;2022-11-03T04:09:58;9.00;99.90
15636;DHT22;7917;50.818;6.972;2022-11-03T04:12:26;8.90;99.90
15636;DHT22;7917;50.818;6.972;2022-11-03T04:15:13;8.90;99.90
15636;DHT22;7917;50.818;6.972;2022-11-03T04:17:57;8.80;99.90
15636;DHT22;7917;50.818;6.972;2022-11-03T04:20:42;8.80;99.90
15636;DHT22;7917;50.818;6.972;2022-11-03T04:23:27;8.80;99.90
15636;DHT22;7917;50.818;6.972;2022-11-03T04:25:56;8.80;99.90
15636;DHT22;7917;50.818;6.972;2022-11-03T04:28:24;8.80;99.90
15636;DHT22;7917;50.818;6.972;2022-11-03T04:30:55;8.80;99.90
15636;DHT22;7917;50.818;6.972;2022-11-03T04:33:23;8.70;99.90
15636;DHT22;7917;50.818;6.972;2022-11-03T04:35:52;8.70;99.90
15636;DHT22;7917;50.818;6.972;2022-11-03T04:38:22;8.90;99.90
15636;DHT22;7917;50.818;6.972;2022-11-03T04:40:53;8.90;99.90
15636;DHT22;7917;50.818;6.972;2022-11-03T04:43:27;8.90;99.90
15636;DHT22;7917;50.818;6.972;2022-11-03T04:45:56;8.90;99.90
15636;DHT22;7917;50.818;6.972;2022-11-03T04:48:24;8.80;99.90
15636;DHT22;7917;50.818;6.972;2022-11-03T04:50:54;8.90;99.90
15636;DHT22;7917;50.818;6.972;2022-11-03T04:53:22;8.90;99.90
15636;DHT22;7917;50.818;6.972;2022-11-03T04:55:50;9.00;99.90
15636;DHT22;7917;50.818;6.972;2022-11-03T04:58:21;9.00;99.90
15636;DHT22;7917;50.818;6.972;2022-11-03T05:00:49;9.10;99.90
15636;DHT22;7917;50.818;6.972;2022-11-03T05:03:22;9.20;99.90
15636;DHT22;7917;50.818;6.972;2022-11-03T05:05:50;9.20;99.90
15636;DHT22;7917;50.818;6.972;2022-11-03T05:08:18;9.20;99.90
15636;DHT22;7917;50.818;6.972;2022-11-03T05:10:47;9.30;99.90
15636;DHT22;7917;50.818;6.972;2022-11-03T05:13:19;9.40;99.90
15636;DHT22;7917;50.818;6.972;2022-11-03T05:15:48;9.50;99.90
15636;DHT22;7917;50.818;6.972;2022-11-03T05:18:21;9.50;99.90
15636;DHT22;7917;50.818;6.972;2022-11-03T05:20:53;9.60;99.90
15636;DHT22;7917;50.818;6.972;2022-11-03T05:23:22;9.60;99.90
15636;DHT22;7917;50.818;6.972;2022-11-03T05:25:51;9.70;99.90
15636;DHT22;7917;50.818;6.972;2022-11-03T05:28:25;9.80;99.90
15636;DHT22;7917;50.818;6.972;2022-11-03T05:30:53;9.80;99.90
15636;DHT22;7917;50.818;6.972;2022-11-03T05:33:25;9.80;99.90
15636;DHT22;7917;50.818;6.972;2022-11-03T05:35:55;9.80;99.90
15636;DHT22;7917;50.818;6.972;2022-11-03T05:38:26;9.80;99.90
15636;DHT22;7917;50.818;6.972;2022-11-03T05:40:54;9.90;99.90
15636;DHT22;7917;50.818;6.972;2022-11-03T05:43:23;9.80;99.90
15636;DHT22;7917;50.818;6.972;2022-11-03T05:45:51;9.80;99.90
15636;DHT22;7917;50.818;6.972;2022-11-03T05:48:32;9.90;99.90
15636;DHT22;7917;50.818;6.972;2022-11-03T05:51:02;9.90;99.90
15636;DHT22;7917;50.818;6.972;2022-11-03T05:53:40;9.90;99.90
15636;DHT22;7917;50.818;6.972;2022-11-03T05:56:12;10.00;99.90
15636;DHT22;7917;50.818;6.972;2022-11-03T05:58:44;9.90;99.90
15636;DHT22;7917;50.818;6.972;2022-11-03T06:01:16;10.00;99.90
15636;DHT22;7917;50.818;6.972;2022-11-03T06:03:46;10.00;99.90
15636;DHT22;7917;50.818;6.972;2022-11-03T06:06:18;10.00;99.90
15636;DHT22;7917;50.818;6.972;2022-11-03T06:08:47;10.00;99.90
15636;DHT22;7917;50.818;6.972;2022-11-03T06:11:34;10.00;99.90
15636;DHT22;7917;50.818;6.972;2022-11-03T06:14:12;9.90;99.90
15636;DHT22;7917;50.818;6.972;2022-11-03T06:16:41;9.90;99.90
15636;DHT22;7917;50.818;6.972;2022-11-03T06:19:22;9.90;99.90
15636;DHT22;7917;50.818;6.972;2022-11-03T06:21:52;9.90;99.90
15636;DHT22;7917;50.818;6.972;2022-11-03T06:24:22;9.80;99.90
15636;DHT22;7917;50.818;6.972;2022-11-03T06:26:50;9.80;99.90
15636;DHT22;7917;50.818;6.972;2022-11-03T06:29:19;9.80;99.90
15636;DHT22;7917;50.818;6.972;2022-11-03T06:31:48;9.90;99.90
15636;DHT22;7917;50.818;6.972;2022-11-03T06:34:25;10.00;99.90
15636;DHT22;7917;50.818;6.972;2022-11-03T06:36:56;9.90;99.90
15636;DHT22;7917;50.818;6.972;2022-11-03T06:39:23;10.00;99.90
15636;DHT22;7917;50.818;6.972;2022-11-03T06:41:52;10.00;99.90
15636;DHT22;7917;50.818;6.972;2022-11-03T06:44:22;10.00;99.90
15636;DHT22;7917;50.818;6.972;2022-11-03T06:46:50;10.10;99.90
15636;DHT22;7917;50.818;6.972;2022-11-03T06:49:29;10.10;99.90
15636;DHT22;7917;50.818;6.972;2022-11-03T06:51:58;10.10;99.90
15636;DHT22;7917;50.818;6.972;2022-11-03T06:54:29;10.10;99.90
15636;DHT22;7917;50.818;6.972;2022-11-03T06:56:56;10.00;99.90
15636;DHT22;7917;50.818;6.972;2022-11-03T06:59:24;10.00;99.90
15636;DHT22;7917;50.818;6.972;2022-11-03T07:01:53;10.00;99.90
15636;DHT22;7917;50.818;6.972;2022-11-03T07:04:24;10.00;99.90
15636;DHT22;7917;50.818;6.972;2022-11-03T07:06:58;10.00;99.90
15636;DHT22;7917;50.818;6.972;2022-11-03T07:09:26;10.00;99.90
15636;DHT22;7917;50.818;6.972;2022-11-03T07:11:55;10.00;99.90
15636;DHT22;7917;50.818;6.972;2022-11-03T07:14:25;10.10;99.90
15636;DHT22;7917;50.818;6.972;2022-11-03T07:16:56;10.10;99.90
15636;DHT22;7917;50.818;6.972;2022-11-03T07:19:28;10.20;99.90
15636;DHT22;7917;50.818;6.972;2022-11-03T07:21:58;10.30;99.90
15636;DHT22;7917;50.818;6.972;2022-11-03T07:24:27;10.40;99.90
15636;DHT22;7917;50.818;6.972;2022-11-03T07:27:09;10.50;99.90
15636;DHT22;7917;50.818;6.972;2022-11-03T07:29:40;10.50;99.90
15636;DHT22;7917;50.818;6.972;2022-11-03T07:32:13;10.60;99.90
15636;DHT22;7917;50.818;6.972;2022-11-03T07:34:42;10.70;99.90
15636;DHT22;7917;50.818;6.972;2022-11-03T07:37:14;10.90;99.90
15636;DHT22;7917;50.818;6.972;2022-11-03T07:39:43;11.10;99.90
15636;DHT22;7917;50.818;6.972;2022-11-03T07:42:16;11.30;99.90
15636;DHT22;7917;50.818;6.972;2022-11-03T07:44:44;11.60;99.90
15636;DHT22;7917;50.818;6.972;2022-11-03T07:47:12;11.70;99.90
15636;DHT22;7917;50.818;6.972;2022-11-03T07:49:41;11.90;99.90
15636;DHT22;7917;50.818;6.972;2022-11-03T07:52:13;12.10;74.90
15636;DHT22;7917;50.818;6.972;2022-11-03T07:54:42;12.30;1.00
15636;DHT22;7917;50.818;6.972;2022-11-03T07:57:14;12.50;1.00
15636;DHT22;7917;50.818;6.972;2022-11-03T07:59:43;12.50;1.00
15636;DHT22;7917;50.818;6.972;2022-11-03T08:02:23;12.50;1.00
15636;DHT22;7917;50.818;6.972;2022-11-03T08:04:52;12.50;1.00
15636;DHT22;7917;50.818;6.972;2022-11-03T08:07:21;12.40;1.00
15636;DHT22;7917;50.818;6.972;2022-11-03T08:09:48;12.40;1.00
15636;DHT22;7917;50.818;6.972;2022-11-03T08:12:17;12.40;5.10
15636;DHT22;7917;50.818;6.972;2022-11-03T08:14:44;12.50;10.00
15636;DHT22;7917;50.818;6.972;2022-11-03T08:17:11;12.40;1.00
15636;DHT22;7917;50.818;6.972;2022-11-03T08:19:39;12.40;1.00
15636;DHT22;7917;50.818;6.972;2022-11-03T08:22:06;12.50;1.00
15636;DHT22;7917;50.818;6.972;2022-11-03T08:24:35;12.50;1.00
15636;DHT22;7917;50.818;6.972;2022-11-03T08:27:02;12.60;1.00
15636;DHT22;7917;50.818;6.972;2022-11-03T08:29:30;12.70;1.00
15636;DHT22;7917;50.818;6.972;2022-11-03T08:31:57;12.70;1.00
15636;DHT22;7917;50.818;6.972;2022-11-03T08:34:25;12.70;99.90
15636;DHT22;7917;50.818;6.972;2022-11-03T08:36:52;12.80;99.90
15636;DHT22;7917;50.818;6.972;2022-11-03T08:39:19;12.90;99.90
15636;DHT22;7917;50.818;6.972;2022-11-03T08:41:49;13.00;99.90
15636;DHT22;7917;50.818;6.972;2022-11-03T08:44:16;13.00;99.90
15636;DHT22;7917;50.818;6.972;2022-11-03T08:46:43;13.10;1.00
15636;DHT22;7917;50.818;6.972;2022-11-03T08:49:11;13.10;99.90
15636;DHT22;7917;50.818;6.972;2022-11-03T08:51:38;13.20;1.00
15636;DHT22;7917;50.818;6.972;2022-11-03T08:54:05;13.30;1.00
15636;DHT22;7917;50.818;6.972;2022-11-03T08:56:33;13.50;1.00
15636;DHT22;7917;50.818;6.972;2022-11-03T08:59:02;13.50;1.00
15636;DHT22;7917;50.818;6.972;2022-11-03T09:01:29;13.50;1.00
15636;DHT22;7917;50.818;6.972;2022-11-03T09:03:56;13.40;1.00
15636;DHT22;7917;50.818;6.972;2022-11-03T09:06:25;13.40;1.00
15636;DHT22;7917;50.818;6.972;2022-11-03T09:08:52;13.30;1.00
15636;DHT22;7917;50.818;6.972;2022-11-03T09:11:19;13.40;3.80
15636;DHT22;7917;50.818;6.972;2022-11-03T09:13:47;13.40;1.00
15636;DHT22;7917;50.818;6.972;2022-11-03T09:16:16;13.30;1.00
15636;DHT22;7917;50.818;6.972;2022-11-03T09:18:43;13.20;30.70
15636;DHT22;7917;50.818;6.972;2022-11-03T09:21:11;13.20;99.90
15636;DHT22;7917;50.818;6.972;2022-11-03T09:23:39;13.10;76.10
15636;DHT22;7917;50.818;6.972;2022-11-03T09:26:06;13.20;1.00
15636;DHT22;7917;50.818;6.972;2022-11-03T09:28:34;13.30;99.90
15636;DHT22;7917;50.818;6.972;2022-11-03T09:31:01;13.40;1.00
15636;DHT22;7917;50.818;6.972;2022-11-03T09:33:30;13.40;9.10
15636;DHT22;7917;50.818;6.972;2022-11-03T09:35:58;13.40;1.00
15636;DHT22;7917;50.818;6.972;2022-11-03T09:38:26;13.40;1.00
15636;DHT22;7917;50.818;6.972;2022-11-03T09:40:54;13.50;1.00
15636;DHT22;7917;50.818;6.972;2022-11-03T09:43:21;13.50;1.00
15636;DHT22;7917;50.818;6.972;2022-11-03T09:45:49;13.40;1.00
15636;DHT22;7917;50.818;6.972;2022-11-03T09:48:18;13.40;7.00
15636;DHT22;7917;50.818;6.972;2022-11-03T09:50:51;13.40;1.00
15636;DHT22;7917;50.818;6.972;2022-11-03T09:53:20;13.40;1.00
15636;DHT22;7917;50.818;6.972;2022-11-03T09:55:48;13.40;1.00
15636;DHT22;7917;50.818;6.972;2022-11-03T09:58:16;13.40;1.00
15636;DHT22;7917;50.818;6.972;2022-11-03T10:00:44;13.30;1.00
15636;DHT22;7917;50.818;6.972;2022-11-03T10:03:12;13.20;1.00
15636;DHT22;7917;50.818;6.972;2022-11-03T10:05:41;13.20;1.00
15636;DHT22;7917;50.818;6.972;2022-11-03T10:08:21;13.20;1.00
15636;DHT22;7917;50.818;6.972;2022-11-03T10:10:54;13.20;1.00
15636;DHT22;7917;50.818;6.972;2022-11-03T10:13:25;13.10;1.00
15636;DHT22;7917;50.818;6.972;2022-11-03T10:15:54;13.10;1.00
15636;DHT22;7917;50.818;6.972;2022-11-03T10:18:22;13.10;1.00
15636;DHT22;7917;50.818;6.972;2022-11-03T10:20:50;13.20;99.90
15636;DHT22;7917;50.818;6.972;2022-11-03T10:23:19;13.30;1.00
15636;DHT22;7917;50.818;6.972;2022-11-03T10:25:47;13.30;1.00
15636;DHT22;7917;50.818;6.972;2022-11-03T10:28:17;13.40;1.00
15636;DHT22;7917;50.818;6.972;2022-11-03T10:30:55;13.30;1.00
15636;DHT22;7917;50.818;6.972;2022-11-03T10:33:28;13.30;1.00
15636;DHT22;7917;50.818;6.972;2022-11-03T10:35:58;13.30;1.00
15636;DHT22;7917;50.818;6.972;2022-11-03T10:38:29;13.30;1.00
15636;DHT22;7917;50.818;6.972;2022-11-03T10:41:09;13.20;1.00
15636;DHT22;7917;50.818;6.972;2022-11-03T10:43:38;13.20;1.00
15636;DHT22;7917;50.818;6.972;2022-11-03T10:46:14;13.10;1.00
15636;DHT22;7917;50.818;6.972;2022-11-03T10:48:42;13.10;1.00
15636;DHT22;7917;50.818;6.972;2022-11-03T10:51:11;13.10;1.00
15636;DHT22;7917;50.818;6.972;2022-11-03T10:53:40;13.10;1.00
15636;DHT22;7917;50.818;6.972;2022-11-03T10:56:08;13.10;1.00
15636;DHT22;7917;50.818;6.972;2022-11-03T10:58:36;13.00;1.00
15636;DHT22;7917;50.818;6.972;2022-11-03T11:01:05;13.00;1.00
15636;DHT22;7917;50.818;6.972;2022-11-03T11:03:40;12.90;1.00
15636;DHT22;7917;50.818;6.972;2022-11-03T11:06:17;12.90;1.00
15636;DHT22;7917;50.818;6.972;2022-11-03T11:08:48;12.90;1.00
15636;DHT22;7917;50.818;6.972;2022-11-03T11:11:20;12.90;47.00
15636;DHT22;7917;50.818;6.972;2022-11-03T11:14:21;12.90;49.30
15636;DHT22;7917;50.818;6.972;2022-11-03T11:16:51;12.80;98.70
15636;DHT22;7917;50.818;6.972;2022-11-03T11:19:19;12.80;48.00
15636;DHT22;7917;50.818;6.972;2022-11-03T11:22:11;12.80;48.80
15636;DHT22;7917;50.818;6.972;2022-11-03T11:24:59;12.90;29.90
15636;DHT22;7917;50.818;6.972;2022-11-03T11:31:01;12.90;61.40
15636;DHT22;7917;50.818;6.972;2022-11-03T11:33:30;12.90;1.00
15636;DHT22;7917;50.818;6.972;2022-11-03T11:38:56;12.90;1.00
15636;DHT22;7917;50.818;6.972;2022-11-03T11:44:52;12.90;29.90
15636;DHT22;7917;50.818;6.972;2022-11-03T11:47:28;13.00;1.00
15636;DHT22;7917;50.818;6.972;2022-11-03T11:53:13;12.80;90.90
15636;DHT22;7917;50.818;6.972;2022-11-03T11:55:47;12.90;1.00
15636;DHT22;7917;50.818;6.972;2022-11-03T11:58:22;12.80;19.40
15636;DHT22;7917;50.818;6.972;2022-11-03T12:00:53;12.80;74.60
15636;DHT22;7917;50.818;6.972;2022-11-03T12:03:31;12.80;28.00
15636;DHT22;7917;50.818;6.972;2022-11-03T12:05:59;12.80;98.90
15636;DHT22;7917;50.818;6.972;2022-11-03T12:08:28;12.70;95.10
15636;DHT22;7917;50.818;6.972;2022-11-03T12:10:57;12.70;99.90
15636;DHT22;7917;50.818;6.972;2022-11-03T12:13:49;12.70;99.90
15636;DHT22;7917;50.818;6.972;2022-11-03T12:16:32;12.80;99.90
15636;DHT22;7917;50.818;6.972;2022-11-03T12:22:38;12.80;99.90
15636;DHT22;7917;50.818;6.972;2022-11-03T12:25:32;12.80;82.90
15636;DHT22;7917;50.818;6.972;2022-11-03T12:28:00;12.80;99.90
15636;DHT22;7917;50.818;6.972;2022-11-03T12:30:27;12.80;34.90
15636;DHT22;7917;50.818;6.972;2022-11-03T12:32:56;12.90;42.30
15636;DHT22;7917;50.818;6.972;2022-11-03T12:35:24;12.90;71.20
15636;DHT22;7917;50.818;6.972;2022-11-03T12:37:51;12.90;25.40
15636;DHT22;7917;50.818;6.972;2022-11-03T12:40:19;12.90;51.80
15636;DHT22;7917;50.818;6.972;2022-11-03T12:42:47;12.90;1.00
15636;DHT22;7917;50.818;6.972;2022-11-03T12:45:15;12.90;1.00
15636;DHT22;7917;50.818;6.972;2022-11-03T12:47:45;12.90;93.10
15636;DHT22;7917;50.818;6.972;2022-11-03T12:50:15;12.90;83.30
15636;DHT22;7917;50.818;6.972;2022-11-03T12:52:42;12.90;59.70
15636;DHT22;7917;50.818;6.972;2022-11-03T12:55:09;12.90;99.90
15636;DHT22;7917;50.818;6.972;2022-11-03T12:57:38;12.80;52.10
15636;DHT22;7917;50.818;6.972;2022-11-03T13:00:06;12.90;3.70
15636;DHT22;7917;50.818;6.972;2022-11-03T13:02:34;12.80;96.70
15636;DHT22;7917;50.818;6.972;2022-11-03T13:05:02;12.80;88.60
15636;DHT22;7917;50.818;6.972;2022-11-03T13:07:30;12.80;36.00
15636;DHT22;7917;50.818;6.972;2022-11-03T13:09:58;12.80;72.40
15636;DHT22;7917;50.818;6.972;2022-11-03T13:12:26;12.80;99.90
15636;DHT22;7917;50.818;6.972;2022-11-03T13:15:03;12.90;68.20
15636;DHT22;7917;50.818;6.972;2022-11-03T13:17:30;12.90;45.30
15636;DHT22;7917;50.818;6.972;2022-11-03T13:19:59;12.80;95.60
15636;DHT22;7917;50.818;6.972;2022-11-03T13:22:26;12.80;99.90
15636;DHT22;7917;50.818;6.972;2022-11-03T13:24:55;12.90;42.10
15636;DHT22;7917;50.818;6.972;2022-11-03T13:27:24;12.80;65.30
15636;DHT22;7917;50.818;6.972;2022-11-03T13:29:51;12.90;39.70
15636;DHT22;7917;50.818;6.972;2022-11-03T13:32:21;12.90;1.10
15636;DHT22;7917;50.818;6.972;2022-11-03T13:34:49;12.80;99.90
15636;DHT22;7917;50.818;6.972;2022-11-03T13:37:16;12.90;38.30
15636;DHT22;7917;50.818;6.972;2022-11-03T13:39:44;13.00;1.00
15636;DHT22;7917;50.818;6.972;2022-11-03T13:42:13;13.00;33.80
15636;DHT22;7917;50.818;6.972;2022-11-03T13:44:40;13.00;90.00
15636;DHT22;7917;50.818;6.972;2022-11-03T13:47:08;12.90;99.90
15636;DHT22;7917;50.818;6.972;2022-11-03T13:49:36;12.90;35.40
15636;DHT22;7917;50.818;6.972;2022-11-03T13:52:03;12.90;99.90
15636;DHT22;7917;50.818;6.972;2022-11-03T13:54:31;12.80;99.90
15636;DHT22;7917;50.818;6.972;2022-11-03T13:56:59;12.70;99.90
15636;DHT22;7917;50.818;6.972;2022-11-03T13:59:27;12.70;99.90
15636;DHT22;7917;50.818;6.972;2022-11-03T14:01:55;12.70;99.90
15636;DHT22;7917;50.818;6.972;2022-11-03T14:04:23;12.60;99.90
15636;DHT22;7917;50.818;6.972;2022-11-03T14:06:50;12.60;99.90
15636;DHT22;7917;50.818;6.972;2022-11-03T14:09:17;12.60;99.90
15636;DHT22;7917;50.818;6.972;2022-11-03T14:11:46;12.60;99.90
15636;DHT22;7917;50.818;6.972;2022-11-03T14:14:32;12.60;99.90
15636;DHT22;7917;50.818;6.972;2022-11-03T14:17:00;12.70;99.90
15636;DHT22;7917;50.818;6.972;2022-11-03T14:19:27;12.60;99.90
15636;DHT22;7917;50.818;6.972;2022-11-03T14:21:54;12.60;99.90
15636;DHT22;7917;50.818;6.972;2022-11-03T14:24:22;12.60;99.90
15636;DHT22;7917;50.818;6.972;2022-11-03T14:26:50;12.50;99.90
15636;DHT22;7917;50.818;6.972;2022-11-03T14:29:17;12.50;99.90
15636;DHT22;7917;50.818;6.972;2022-11-03T14:31:46;12.50;99.90
15636;DHT22;7917;50.818;6.972;2022-11-03T14:34:14;12.40;99.90
15636;DHT22;7917;50.818;6.972;2022-11-03T14:36:42;12.40;99.90
15636;DHT22;7917;50.818;6.972;2022-11-03T14:39:09;12.40;99.90
15636;DHT22;7917;50.818;6.972;2022-11-03T14:41:37;12.40;99.90
15636;DHT22;7917;50.818;6.972;2022-11-03T14:44:24;12.40;99.90
15636;DHT22;7917;50.818;6.972;2022-11-03T14:46:53;12.40;99.90
15636;DHT22;7917;50.818;6.972;2022-11-03T14:49:21;12.40;99.90
15636;DHT22;7917;50.818;6.972;2022-11-03T14:51:48;12.50;99.90
15636;DHT22;7917;50.818;6.972;2022-11-03T14:54:17;12.40;99.90
15636;DHT22;7917;50.818;6.972;2022-11-03T14:56:44;12.40;99.90
15636;DHT22;7917;50.818;6.972;2022-11-03T14:59:11;12.20;1.00
15636;DHT22;7917;50.818;6.972;2022-11-03T15:01:38;12.20;1.00
15636;DHT22;7917;50.818;6.972;2022-11-03T15:04:08;12.10;1.00
15636;DHT22;7917;50.818;6.972;2022-11-03T15:06:36;12.10;1.00
15636;DHT22;7917;50.818;6.972;2022-11-03T15:09:04;12.00;1.00
15636;DHT22;7917;50.818;6.972;2022-11-03T15:11:32;12.00;1.00
15636;DHT22;7917;50.818;6.972;2022-11-03T15:14:00;11.90;19.80
15636;DHT22;7917;50.818;6.972;2022-11-03T15:16:28;11.90;1.00
15636;DHT22;7917;50.818;6.972;2022-11-03T15:18:56;11.90;1.00
15636;DHT22;7917;50.818;6.972;2022-11-03T15:21:25;11.90;1.90
15636;DHT22;7917;50.818;6.972;2022-11-03T15:23:52;11.90;99.90
15636;DHT22;7917;50.818;6.972;2022-11-03T15:26:21;11.80;99.90
15636;DHT22;7917;50.818;6.972;2022-11-03T15:28:48;11.80;99.90
15636;DHT22;7917;50.818;6.972;2022-11-03T15:31:15;11.80;99.90
15636;DHT22;7917;50.818;6.972;2022-11-03T15:33:42;11.80;99.90
15636;DHT22;7917;50.818;6.972;2022-11-03T15:36:11;11.80;99.90
15636;DHT22;7917;50.818;6.972;2022-11-03T15:38:41;11.70;99.90
15636;DHT22;7917;50.818;6.972;2022-11-03T15:41:08;11.70;99.90
15636;DHT22;7917;50.818;6.972;2022-11-03T15:43:43;11.70;99.90
15636;DHT22;7917;50.818;6.972;2022-11-03T15:46:11;11.70;99.90
15636;DHT22;7917;50.818;6.972;2022-11-03T15:48:38;11.70;99.90
15636;DHT22;7917;50.818;6.972;2022-11-03T15:51:07;11.70;99.90
15636;DHT22;7917;50.818;6.972;2022-11-03T15:53:34;11.80;99.90
15636;DHT22;7917;50.818;6.972;2022-11-03T15:56:03;11.80;99.90
15636;DHT22;7917;50.818;6.972;2022-11-03T15:58:31;11.80;99.90
15636;DHT22;7917;50.818;6.972;2022-11-03T16:01:00;11.80;99.90
15636;DHT22;7917;50.818;6.972;2022-11-03T16:03:28;11.80;99.90
15636;DHT22;7917;50.818;6.972;2022-11-03T16:05:57;11.70;99.90
15636;DHT22;7917;50.818;6.972;2022-11-03T16:08:25;11.70;99.90
15636;DHT22;7917;50.818;6.972;2022-11-03T16:10:52;11.70;99.90
15636;DHT22;7917;50.818;6.972;2022-11-03T16:13:22;11.70;99.90
15636;DHT22;7917;50.818;6.972;2022-11-03T16:15:49;11.60;99.90
15636;DHT22;7917;50.818;6.972;2022-11-03T16:18:16;11.60;99.90
15636;DHT22;7917;50.818;6.972;2022-11-03T16:20:44;11.60;99.90
15636;DHT22;7917;50.818;6.972;2022-11-03T16:23:12;11.60;99.90
15636;DHT22;7917;50.818;6.972;2022-11-03T16:25:39;11.60;99.90
15636;DHT22;7917;50.818;6.972;2022-11-03T16:28:07;11.50;99.90
15636;DHT22;7917;50.818;6.972;2022-11-03T16:30:36;11.50;99.90